Time;durP1;ratioP1;P1;durP2;ratioP2;P2;SDS_P1;SDS_P2;PMS_P1;PMS_P2;Temp;Humidity;BMP_temperature;BMP_pressure;BME280_temperature;BME280_humidity;BME280_pressure;Samples;Min_cycle;Max_cycle;Signal;HPM_P1;HPM_P2
2021/05/31 00:01:48;;;;;;;35.40;14.52;;;;;;;10.32;67.89;99078.13;4952940;28;20027;-66
2021/05/31 00:04:14;;;;;;;33.38;14.88;;;;;;;10.31;68.34;99076.47;4952995;28;20039;-66
2021/05/31 00:06:49;;;;;;;36.50;16.88;;;;;;;10.32;68.00;99075.38;4952824;28;20081;-67
2021/05/31 00:09:15;;;;;;;34.08;14.95;;;;;;;10.32;68.12;99076.22;4969809;28;20107;-66
2021/05/31 00:11:40;;;;;;;31.55;14.93;;;;;;;10.33;68.26;99072.38;4956552;28;20485;-67
2021/05/31 00:14:07;;;;;;;32.63;14.57;;;;;;;10.35;68.17;99072.09;4956452;28;20494;-67
2021/05/31 00:16:33;;;;;;;32.00;15.75;;;;;;;10.33;68.85;99066.91;4956547;28;20019;-66
2021/05/31 00:18:58;;;;;;;31.13;16.23;;;;;;;10.36;67.82;99073.72;4956337;28;20062;-66
2021/05/31 00:21:24;;;;;;;32.08;15.05;;;;;;;10.34;67.80;99071.28;4956445;28;20497;-66
2021/05/31 00:23:49;;;;;;;31.83;15.68;;;;;;;10.36;68.21;99066.34;4956416;28;20034;-67
2021/05/31 00:26:16;;;;;;;28.77;15.60;;;;;;;10.39;68.20;99064.97;4955896;28;20032;-66
2021/05/31 00:28:43;;;;;;;32.10;16.25;;;;;;;10.38;68.54;99053.16;4956278;28;20026;-66
2021/05/31 00:31:10;;;;;;;35.13;15.95;;;;;;;10.40;68.72;99059.19;4956232;28;20015;-67
2021/05/31 00:33:35;;;;;;;33.97;15.32;;;;;;;10.40;67.69;99053.72;4956203;28;20015;-66
2021/05/31 00:36:01;;;;;;;30.83;14.98;;;;;;;10.39;68.19;99052.06;4956081;28;20042;-67
2021/05/31 00:38:27;;;;;;;28.67;15.80;;;;;;;10.39;68.25;99051.25;4970641;28;20490;-67
2021/05/31 00:40:52;;;;;;;33.08;17.17;;;;;;;10.41;68.92;99041.66;4955881;28;20117;-67
2021/05/31 00:43:18;;;;;;;32.55;17.00;;;;;;;10.46;68.21;99039.97;4956162;28;20032;-66
2021/05/31 00:45:43;;;;;;;30.58;15.40;;;;;;;10.49;68.26;99039.44;4956013;28;20126;-66
2021/05/31 00:48:08;;;;;;;27.10;13.20;;;;;;;10.53;68.76;99040.50;4955923;28;20015;-67
2021/05/31 00:50:34;;;;;;;32.28;14.77;;;;;;;10.53;68.71;99027.63;4970684;28;20035;-66
2021/05/31 00:53:00;;;;;;;28.90;13.80;;;;;;;10.57;68.30;99039.69;4955875;28;20031;-66
2021/05/31 00:55:26;;;;;;;28.98;14.45;;;;;;;10.61;68.08;99033.59;4955697;28;20031;-67
2021/05/31 00:57:51;;;;;;;30.00;14.18;;;;;;;10.62;68.31;99022.38;4953690;29;20034;-67
2021/05/31 01:00:17;;;;;;;32.75;13.63;;;;;;;10.63;68.52;99034.97;4955527;28;20046;-67
2021/05/31 01:02:43;;;;;;;28.13;14.25;;;;;;;10.66;68.06;99030.84;4955865;28;20391;-67
2021/05/31 01:05:09;;;;;;;27.20;13.02;;;;;;;10.67;68.08;99029.72;4955661;28;20035;-67
2021/05/31 01:07:44;;;;;;;27.77;13.18;;;;;;;10.67;67.89;99027.00;4953289;29;20474;-67
2021/05/31 01:10:17;;;;;;;27.85;14.00;;;;;;;10.68;68.24;99025.88;4955580;28;20055;-67
2021/05/31 01:12:56;;;;;;;30.52;14.00;;;;;;;10.71;68.51;99030.81;4955659;28;20024;-67
2021/05/31 01:15:26;;;;;;;31.13;14.30;;;;;;;10.71;67.86;99028.06;4953632;29;20110;-67
2021/05/31 01:17:59;;;;;;;26.88;13.63;;;;;;;10.66;67.77;99020.69;4955095;28;20023;-67
2021/05/31 01:20:54;;;;;;;27.63;13.13;;;;;;;10.63;68.18;99023.16;4953998;28;20019;-67
2021/05/31 01:23:23;;;;;;;28.45;13.70;;;;;;;10.62;68.35;99018.78;4967924;28;20078;-67
2021/05/31 01:25:57;;;;;;;31.38;14.90;;;;;;;10.61;67.90;99025.38;4955126;28;20030;-66
2021/05/31 01:28:51;;;;;;;26.73;14.25;;;;;;;10.57;67.61;99020.47;4953530;29;20027;-67
2021/05/31 01:31:22;;;;;;;29.05;14.10;;;;;;;10.51;67.72;99021.59;4953980;29;20050;-66
2021/05/31 01:33:51;;;;;;;31.77;16.67;;;;;;;10.48;67.91;99022.16;4955063;28;20847;-67
2021/05/31 01:36:19;;;;;;;30.33;17.45;;;;;;;10.47;68.09;99012.28;4952536;29;20102;-67
2021/05/31 01:38:48;;;;;;;30.45;16.63;;;;;;;10.48;67.99;99016.69;4954659;28;20094;-67
2021/05/31 01:41:14;;;;;;;31.60;16.50;;;;;;;10.47;67.61;99019.69;4954541;28;20073;-67
2021/05/31 01:43:42;;;;;;;33.72;14.98;;;;;;;10.45;67.87;99014.50;4954575;28;20470;-67
2021/05/31 01:46:08;;;;;;;34.08;14.88;;;;;;;10.44;68.41;99010.13;4954871;28;20027;-67
2021/05/31 01:48:33;;;;;;;32.42;14.15;;;;;;;10.47;68.54;99014.19;4954705;28;20022;-67
2021/05/31 01:51:00;;;;;;;33.08;15.82;;;;;;;10.53;68.29;99015.81;4954706;28;20023;-67
2021/05/31 01:53:26;;;;;;;28.00;13.30;;;;;;;10.53;68.04;99007.59;4954606;28;20482;-66
2021/05/31 01:55:52;;;;;;;34.15;14.63;;;;;;;10.53;67.87;99002.09;4954471;28;20027;-66
2021/05/31 01:58:18;;;;;;;28.23;13.40;;;;;;;10.52;67.98;99006.78;4954427;28;20087;-66
2021/05/31 02:00:44;;;;;;;35.38;15.43;;;;;;;10.53;68.25;99005.69;4954311;28;20457;-67
2021/05/31 02:03:10;;;;;;;34.33;16.00;;;;;;;10.53;67.45;99015.81;4954411;28;20069;-67
2021/05/31 02:05:35;;;;;;;31.92;14.98;;;;;;;10.50;67.34;99003.50;4951843;29;20055;-67
2021/05/31 02:08:01;;;;;;;35.25;15.82;;;;;;;10.47;67.48;99004.06;4953111;29;20488;-67
2021/05/31 02:10:26;;;;;;;32.08;14.65;;;;;;;10.43;67.50;99003.00;4954214;29;20086;-67
2021/05/31 02:13:00;;;;;;;32.78;15.90;;;;;;;10.42;68.16;99010.38;4954043;28;20023;-66
2021/05/31 02:16:03;;;;;;;31.02;15.80;;;;;;;10.45;67.58;99003.53;4954025;28;20015;-67
2021/05/31 02:18:33;;;;;;;37.50;15.55;;;;;;;10.49;68.20;98999.13;4954079;28;20027;-67
2021/05/31 02:21:14;;;;;;;37.20;15.90;;;;;;;10.46;68.16;99007.06;4966532;28;20034;-67
2021/05/31 02:23:41;;;;;;;30.17;14.38;;;;;;;10.46;68.86;99001.59;4952064;29;20102;-66
2021/05/31 02:26:12;;;;;;;45.20;17.88;;;;;;;10.44;67.50;99001.88;4954013;28;20108;-66
2021/05/31 02:28:37;;;;;;;32.92;15.68;;;;;;;10.40;67.91;99001.63;4951675;29;20023;-66
2021/05/31 02:31:03;;;;;;;29.52;16.88;;;;;;;10.38;68.26;99001.06;4953381;28;20436;-67
2021/05/31 02:33:28;;;;;;;27.85;14.95;;;;;;;10.42;68.11;99001.34;4947257;28;20027;-66
2021/05/31 02:35:54;;;;;;;30.98;15.50;;;;;;;10.41;68.08;99003.25;4952090;28;20042;-66
2021/05/31 02:38:19;;;;;;;37.92;15.38;;;;;;;10.41;68.66;99005.19;4952314;28;20060;-67
2021/05/31 02:40:45;;;;;;;29.00;14.23;;;;;;;10.39;68.17;99005.47;4950691;29;20080;-67
2021/05/31 02:43:10;;;;;;;30.75;15.63;;;;;;;10.37;68.49;99004.09;4952431;28;20401;-67
2021/05/31 02:45:37;;;;;;;31.98;15.00;;;;;;;10.35;68.48;99000.81;4951891;29;20481;-67
2021/05/31 02:48:04;;;;;;;29.70;13.57;;;;;;;10.32;68.44;99001.34;4952357;28;20077;-67
2021/05/31 02:50:31;;;;;;;29.38;13.65;;;;;;;10.31;68.22;99000.56;4952037;28;20028;-67
2021/05/31 02:52:57;;;;;;;28.45;13.20;;;;;;;10.30;68.33;98998.06;4949640;29;20031;-67
2021/05/31 02:55:25;;;;;;;33.78;15.23;;;;;;;10.31;68.53;98999.72;4950546;29;20046;-67
2021/05/31 02:57:51;;;;;;;30.92;14.40;;;;;;;10.28;68.18;99003.84;4952150;28;20101;-68
2021/05/31 03:00:20;;;;;;;26.10;14.82;;;;;;;10.30;68.33;99004.41;4952273;28;20486;-67
2021/05/31 03:02:46;;;;;;;27.77;13.88;;;;;;;10.31;68.53;99003.28;4951903;28;20114;-68
2021/05/31 03:05:18;;;;;;;23.58;13.55;;;;;;;10.26;68.52;99003.31;4951910;28;20027;-68
2021/05/31 03:07:44;;;;;;;26.02;13.82;;;;;;;10.26;68.99;99006.06;4951613;28;20035;-67
2021/05/31 03:10:11;;;;;;;27.63;13.38;;;;;;;10.22;68.20;99003.03;4951945;28;20456;-67
2021/05/31 03:12:37;;;;;;;29.38;13.43;;;;;;;10.23;68.54;99020.31;4949002;29;20019;-67
2021/05/31 03:15:05;;;;;;;30.80;14.02;;;;;;;10.22;68.82;99014.00;4951689;28;20031;-68
2021/05/31 03:17:30;;;;;;;27.55;14.63;;;;;;;10.21;68.33;99008.81;4951769;28;20082;-68
2021/05/31 03:19:56;;;;;;;27.27;14.13;;;;;;;10.24;68.49;99016.47;4949397;29;20022;-68
2021/05/31 03:22:22;;;;;;;30.00;14.50;;;;;;;10.26;68.83;99006.06;4950510;29;20401;-68
2021/05/31 03:24:47;;;;;;;28.83;14.85;;;;;;;10.29;68.90;99008.25;4951657;29;20031;-67
2021/05/31 03:27:12;;;;;;;27.08;13.63;;;;;;;10.33;68.63;99014.81;4952148;28;20031;-67
2021/05/31 03:29:38;;;;;;;26.70;13.07;;;;;;;10.33;68.60;99019.44;4951809;28;20023;-67
2021/05/31 03:32:03;;;;;;;29.75;13.75;;;;;;;10.33;68.04;99014.81;4952124;28;20035;-67
2021/05/31 03:34:29;;;;;;;29.13;13.75;;;;;;;10.34;68.69;99012.88;4951928;28;20031;-67
2021/05/31 03:36:54;;;;;;;25.30;13.07;;;;;;;10.33;68.62;99017.53;4951779;28;20390;-67
2021/05/31 03:39:20;;;;;;;25.95;11.93;;;;;;;10.35;68.69;99011.75;4951908;28;20477;-67
2021/05/31 03:41:45;;;;;;;23.95;13.48;;;;;;;10.35;68.55;99014.50;4951846;28;20499;-67
2021/05/31 03:44:11;;;;;;;25.90;13.77;;;;;;;10.37;68.38;99023.28;4954655;28;20047;-67
2021/05/31 03:46:36;;;;;;;31.65;15.48;;;;;;;10.41;68.33;99018.91;4955482;28;20027;-67
2021/05/31 03:49:02;;;;;;;29.27;13.15;;;;;;;10.40;68.35;99018.06;4955973;28;20028;-67
2021/05/31 03:51:27;;;;;;;29.90;13.95;;;;;;;10.40;68.32;99015.31;4955577;28;20030;-68
2021/05/31 03:53:53;;;;;;;24.42;12.73;;;;;;;10.40;68.65;99018.06;4954355;29;20031;-67
2021/05/31 03:56:18;;;;;;;31.50;13.85;;;;;;;10.42;68.19;99012.31;4955768;28;20025;-67
2021/05/31 03:58:45;;;;;;;27.20;12.52;;;;;;;10.46;68.35;99012.56;4955211;28;20023;-68
2021/05/31 04:01:12;;;;;;;24.00;11.52;;;;;;;10.45;68.38;99005.44;4955576;28;20086;-67
2021/05/31 04:03:37;;;;;;;24.52;12.77;;;;;;;10.46;69.26;99007.06;4952849;29;20540;-68
2021/05/31 04:13:59;;;;;;;25.35;12.93;;;;;;;10.74;68.82;99010.25;4953172;29;20027;-67
2021/05/31 04:16:25;;;;;;;23.00;10.95;;;;;;;10.76;67.91;99005.28;4955174;28;20542;-67
2021/05/31 04:18:50;;;;;;;20.40;11.32;;;;;;;10.77;68.99;99006.94;4961822;28;20144;-68
2021/05/31 04:21:16;;;;;;;22.90;11.63;;;;;;;10.84;68.45;99015.63;4955064;28;20458;-67
2021/05/31 04:23:41;;;;;;;23.38;11.15;;;;;;;10.90;68.59;99008.22;4955067;28;20023;-67
2021/05/31 04:26:06;;;;;;;22.27;11.77;;;;;;;10.96;68.18;99010.63;4955231;28;20078;-67
2021/05/31 04:28:32;;;;;;;21.13;10.40;;;;;;;11.00;68.22;99008.94;4954944;29;20027;-67
2021/05/31 04:30:57;;;;;;;20.38;10.18;;;;;;;11.02;68.12;99011.41;4952611;29;20027;-67
2021/05/31 04:33:22;;;;;;;23.10;10.07;;;;;;;11.06;67.67;99019.91;4955083;28;20102;-67
2021/05/31 04:35:48;;;;;;;20.80;9.88;;;;;;;11.08;67.99;99015.75;4954824;28;20024;-67
2021/05/31 04:38:13;;;;;;;21.23;9.15;;;;;;;11.12;68.08;99016.00;4954883;28;20473;-67
2021/05/31 04:40:38;;;;;;;22.10;10.95;;;;;;;11.17;68.38;99014.03;4955390;29;20031;-67
2021/05/31 04:43:04;;;;;;;23.15;10.93;;;;;;;11.21;67.84;99021.69;4955839;28;20026;-64
2021/05/31 04:45:29;;;;;;;19.48;9.35;;;;;;;11.24;67.22;99018.38;4955825;28;20035;-65
2021/05/31 04:47:54;;;;;;;18.23;10.43;;;;;;;11.28;67.25;99013.97;4955662;28;20030;-65
2021/05/31 04:50:20;;;;;;;22.85;10.40;;;;;;;11.30;67.45;99011.75;4955806;28;20031;-66
2021/05/31 04:52:45;;;;;;;24.17;9.48;;;;;;;11.36;67.43;99016.09;4955590;28;20037;-65
2021/05/31 04:55:16;;;;;;;22.13;9.77;;;;;;;11.36;66.90;99013.34;4955362;28;20066;-68
2021/05/31 04:57:41;;;;;;;22.30;9.63;;;;;;;11.37;66.81;99012.25;4955834;28;20106;-66
2021/05/31 05:00:07;;;;;;;17.30;9.90;;;;;;;11.45;66.97;99014.34;4955542;28;20130;-65
2021/05/31 05:02:33;;;;;;;21.05;9.65;;;;;;;11.51;66.98;99017.06;4955487;28;20473;-66
2021/05/31 05:04:58;;;;;;;21.58;10.18;;;;;;;11.55;66.22;99012.63;4954972;28;20020;-66
2021/05/31 05:07:24;;;;;;;18.70;9.75;;;;;;;11.57;66.19;99010.41;4970220;28;20023;-65
2021/05/31 05:09:49;;;;;;;15.65;8.48;;;;;;;11.61;66.39;99011.47;4955490;28;20023;-66
2021/05/31 05:12:15;;;;;;;20.50;9.43;;;;;;;11.68;66.86;99013.88;4955777;28;20028;-66
2021/05/31 05:14:41;;;;;;;20.17;8.70;;;;;;;11.77;66.70;99014.88;4955624;28;20043;-66
2021/05/31 05:17:06;;;;;;;14.30;7.38;;;;;;;11.80;65.50;99008.81;4955541;28;20039;-65
2021/05/31 05:19:31;;;;;;;42.25;15.27;;;;;;;11.86;65.57;99007.66;4955485;28;20027;-66
2021/05/31 05:21:57;;;;;;;48.20;15.52;;;;;;;11.95;65.55;99013.31;4955530;28;20035;-66
2021/05/31 05:24:22;;;;;;;34.42;10.77;;;;;;;12.05;65.48;99001.41;4954099;29;20050;-67
2021/05/31 05:26:48;;;;;;;22.67;8.65;;;;;;;12.07;65.10;99007.44;4955446;28;20117;-66
2021/05/31 05:29:14;;;;;;;24.60;11.52;;;;;;;12.13;65.00;99010.97;4955370;28;20438;-65
2021/05/31 05:31:39;;;;;;;19.60;8.57;;;;;;;12.15;64.33;99008.75;4955310;28;20509;-66
2021/05/31 05:34:06;;;;;;;19.15;9.32;;;;;;;12.16;64.28;99016.69;4955178;29;20031;-65
2021/05/31 05:36:56;;;;;;;19.00;9.70;;;;;;;12.18;64.11;99011.72;4955181;29;20031;-66
2021/05/31 05:49:12;;;;;;;16.80;9.33;;;;;;;12.13;63.21;99013.72;4956175;28;20031;-66
2021/05/31 05:51:37;;;;;;;16.55;7.63;;;;;;;12.08;63.31;99011.81;4956067;28;20048;-66
2021/05/31 05:54:04;;;;;;;19.20;9.80;;;;;;;12.08;63.50;99014.56;4955988;28;20126;-66
2021/05/31 05:56:30;;;;;;;19.65;9.85;;;;;;;12.09;63.60;99007.97;4956291;28;20467;-66
2021/05/31 05:58:56;;;;;;;19.80;9.23;;;;;;;12.06;63.83;99017.63;4956084;28;20032;-66
2021/05/31 06:01:23;;;;;;;18.88;10.05;;;;;;;12.07;63.18;99021.19;4955662;28;20039;-66
2021/05/31 06:03:51;;;;;;;22.95;9.02;;;;;;;12.07;63.86;99032.19;4956312;28;20035;-66
2021/05/31 06:06:22;;;;;;;24.42;10.80;;;;;;;12.12;63.47;99029.38;4953598;28;20054;-66
2021/05/31 06:08:47;;;;;;;19.88;10.13;;;;;;;12.19;63.84;99027.09;4955666;28;20068;-66
2021/05/31 06:11:13;;;;;;;14.68;8.77;;;;;;;12.23;63.09;99024.56;4955597;28;20035;-66
2021/05/31 06:13:42;;;;;;;21.60;10.52;;;;;;;12.27;63.89;99016.56;4955548;28;20433;-66
2021/05/31 06:16:09;;;;;;;18.67;7.45;;;;;;;12.34;63.48;99028.84;4955852;28;20035;-66
2021/05/31 06:18:34;;;;;;;20.40;11.18;;;;;;;12.42;63.14;99021.88;4955493;28;20114;-67
2021/05/31 06:21:00;;;;;;;24.75;12.07;;;;;;;12.48;63.21;99022.63;4955324;28;20178;-65
2021/05/31 06:23:25;;;;;;;23.70;11.80;;;;;;;12.50;63.09;99025.91;4955398;28;20457;-66
2021/05/31 06:25:51;;;;;;;25.45;12.63;;;;;;;12.55;63.16;99025.84;4955457;28;20055;-66
2021/05/31 06:28:16;;;;;;;17.67;10.13;;;;;;;12.61;63.07;99021.91;4955510;28;20491;-66
2021/05/31 06:30:43;;;;;;;22.30;10.10;;;;;;;12.66;62.93;99018.25;4955200;28;20470;-66
2021/05/31 06:33:08;;;;;;;21.05;9.35;;;;;;;12.70;62.68;99021.22;4955186;28;20042;-66
2021/05/31 06:35:34;;;;;;;26.10;12.25;;;;;;;12.75;62.75;99015.66;4955070;28;20433;-66
2021/05/31 06:37:59;;;;;;;18.45;9.75;;;;;;;12.78;62.76;99013.16;4955096;28;20102;-66
2021/05/31 06:40:25;;;;;;;19.20;11.98;;;;;;;12.83;62.92;99011.44;4955082;28;20031;-66
2021/05/31 06:42:50;;;;;;;17.00;9.65;;;;;;;12.85;62.50;99010.00;4954930;28;20031;-66
2021/05/31 06:45:28;;;;;;;19.27;9.25;;;;;;;12.87;62.26;99015.19;4955028;28;20441;-67
2021/05/31 06:47:55;;;;;;;19.00;9.18;;;;;;;12.89;62.35;99011.06;4954902;28;20035;-67
2021/05/31 06:50:22;;;;;;;35.33;13.57;;;;;;;12.93;62.41;99005.75;4954864;28;20038;-67
2021/05/31 06:52:47;;;;;;;19.95;9.05;;;;;;;12.93;62.46;99012.09;4954776;28;20031;-67
2021/05/31 06:55:13;;;;;;;23.25;10.10;;;;;;;12.98;62.11;99007.63;4954851;28;20531;-67
2021/05/31 06:57:40;;;;;;;20.98;11.23;;;;;;;13.01;62.47;99007.03;4954759;29;20412;-67
2021/05/31 07:00:08;;;;;;;23.88;11.18;;;;;;;13.03;62.07;99007.56;4954591;28;20082;-67
2021/05/31 07:02:34;;;;;;;20.95;9.35;;;;;;;13.03;61.83;99005.59;4954867;28;20027;-67
2021/05/31 07:05:00;;;;;;;16.92;8.27;;;;;;;13.02;61.77;99001.22;4954662;28;20035;-67
2021/05/31 07:07:25;;;;;;;33.75;12.45;;;;;;;13.02;61.58;99001.22;4954551;28;20497;-67
2021/05/31 07:09:50;;;;;;;18.45;8.88;;;;;;;13.07;61.68;99009.41;4954684;28;20042;-67
2021/05/31 07:12:17;;;;;;;20.52;9.63;;;;;;;13.07;61.65;99006.66;4954488;28;20393;-67
2021/05/31 07:14:48;;;;;;;15.95;8.40;;;;;;;13.10;61.45;99005.22;4953196;28;20097;-66
2021/05/31 07:17:14;;;;;;;18.42;9.93;;;;;;;13.13;61.64;99003.81;4949629;28;20024;-66
2021/05/31 07:19:42;;;;;;;18.90;10.20;;;;;;;13.16;61.45;99005.97;4952179;29;20026;-66
2021/05/31 07:22:08;;;;;;;15.40;8.25;;;;;;;13.19;61.75;99002.63;4952274;28;20409;-66
2021/05/31 07:24:34;;;;;;;28.73;9.50;;;;;;;13.22;61.25;98993.75;4939579;28;20042;-66
2021/05/31 07:26:59;;;;;;;15.40;8.25;;;;;;;13.30;61.69;99004.06;4951167;28;20024;-65
2021/05/31 07:29:24;;;;;;;18.52;9.35;;;;;;;13.38;61.78;98997.88;4948054;29;20556;-66
2021/05/31 07:31:50;;;;;;;16.42;8.15;;;;;;;13.46;61.53;99003.84;4947557;29;20027;-66
2021/05/31 07:34:15;;;;;;;19.45;8.98;;;;;;;13.52;61.54;98999.88;4945577;28;20540;-66
2021/05/31 07:36:41;;;;;;;21.38;11.57;;;;;;;13.53;60.71;98991.31;4939437;28;20138;-65
2021/05/31 07:39:06;;;;;;;13.15;7.10;;;;;;;13.57;60.52;98980.50;4942687;28;20653;-64
2021/05/31 07:41:32;;;;;;;20.20;9.63;;;;;;;13.62;60.39;98996.97;4928229;29;20086;-66
2021/05/31 07:43:57;;;;;;;14.13;7.13;;;;;;;13.67;59.01;98985.00;4937046;29;20034;-65
2021/05/31 07:46:23;;;;;;;18.98;9.88;;;;;;;13.68;59.26;98995.72;4939401;29;20485;-65
2021/05/31 07:48:50;;;;;;;15.32;7.70;;;;;;;13.72;58.89;98990.44;4937401;28;20439;-66
2021/05/31 07:51:18;;;;;;;13.35;7.20;;;;;;;13.76;59.08;98987.88;4939388;29;20038;-66
2021/05/31 07:53:49;;;;;;;17.63;7.78;;;;;;;13.83;58.91;98988.28;4939969;28;20032;-66
2021/05/31 07:56:15;;;;;;;18.55;8.90;;;;;;;13.92;59.31;98991.16;4929211;28;20797;-65
2021/05/31 07:58:42;;;;;;;15.40;7.00;;;;;;;14.00;59.22;98976.66;4939080;28;20074;-65
2021/05/31 08:01:08;;;;;;;17.08;8.63;;;;;;;14.08;58.33;98975.13;4934886;29;20505;-65
2021/05/31 08:03:33;;;;;;;12.35;6.90;;;;;;;14.15;58.23;98972.78;4937365;29;20039;-67
2021/05/31 08:05:59;;;;;;;17.50;7.95;;;;;;;14.25;58.52;98978.09;4931271;29;20032;-66
2021/05/31 08:08:26;;;;;;;17.15;8.20;;;;;;;14.33;58.19;98973.78;4942534;28;20032;-67
2021/05/31 08:10:51;;;;;;;13.98;7.95;;;;;;;14.44;57.73;98972.44;4946164;29;20031;-66
2021/05/31 08:13:17;;;;;;;18.83;6.60;;;;;;;14.57;57.64;98970.78;4947242;28;20466;-65
2021/05/31 08:15:42;;;;;;;16.25;7.28;;;;;;;14.67;57.54;98966.94;4938840;28;20446;-65
2021/05/31 08:18:08;;;;;;;19.00;9.60;;;;;;;14.80;57.74;98973.63;4941491;28;20073;-66
2021/05/31 08:20:34;;;;;;;15.68;8.27;;;;;;;14.88;56.09;98961.81;4940594;29;20031;-66
2021/05/31 08:23:01;;;;;;;15.95;6.97;;;;;;;14.97;55.97;98966.59;4944660;29;20071;-66
2021/05/31 08:25:26;;;;;;;13.18;7.60;;;;;;;15.09;56.26;98957.72;4942517;28;20035;-67
2021/05/31 08:27:52;;;;;;;16.75;7.35;;;;;;;15.20;56.17;98961.88;4942418;29;20082;-66
2021/05/31 08:30:18;;;;;;;15.20;7.80;;;;;;;15.33;56.36;98955.47;4944240;29;20119;-67
2021/05/31 08:32:44;;;;;;;16.33;8.77;;;;;;;15.47;56.39;98963.69;4955787;28;20033;-66
2021/05/31 08:35:10;;;;;;;12.45;6.72;;;;;;;15.52;55.10;98959.16;4944076;29;20374;-66
2021/05/31 08:37:36;;;;;;;12.15;6.32;;;;;;;15.56;54.57;98960.16;4942952;29;20063;-67
2021/05/31 08:40:03;;;;;;;12.75;6.82;;;;;;;15.62;54.39;98956.13;4946808;28;20030;-67
2021/05/31 08:42:29;;;;;;;16.45;7.25;;;;;;;15.69;54.92;98961.19;4942298;29;20062;-67
2021/05/31 08:44:54;;;;;;;15.13;7.90;;;;;;;15.76;52.79;98976.19;4943198;29;20106;-67
2021/05/31 08:47:22;;;;;;;15.90;7.57;;;;;;;15.74;53.34;98963.81;4940570;28;20027;-66
2021/05/31 08:49:50;;;;;;;14.93;7.13;;;;;;;15.73;53.07;98962.97;4942287;28;20027;-66
2021/05/31 08:52:15;;;;;;;15.52;8.57;;;;;;;15.75;52.85;98966.25;4941399;29;20494;-66
2021/05/31 08:54:40;;;;;;;17.73;8.45;;;;;;;15.74;52.86;98955.50;4940940;29;20054;-66
2021/05/31 08:57:06;;;;;;;19.73;8.75;;;;;;;15.83;53.53;98961.06;4943709;28;20244;-67
2021/05/31 08:59:31;;;;;;;13.00;7.68;;;;;;;15.88;52.47;98950.72;4936075;29;20031;-65
2021/05/31 09:01:57;;;;;;;17.17;7.78;;;;;;;15.91;51.89;98949.28;4935017;29;20043;-65
2021/05/31 09:04:24;;;;;;;16.48;7.15;;;;;;;15.89;52.08;98954.31;4945660;29;20118;-65
2021/05/31 09:06:57;;;;;;;17.52;8.32;;;;;;;15.88;52.37;98947.97;4943202;29;20402;-66
2021/05/31 09:09:37;;;;;;;14.85;7.75;;;;;;;15.93;52.52;98947.00;4940096;29;20118;-68
2021/05/31 09:12:06;;;;;;;16.83;7.63;;;;;;;15.99;52.54;98944.88;4940441;29;20023;-66
2021/05/31 09:14:31;;;;;;;14.02;7.45;;;;;;;16.05;53.00;98938.06;4945943;29;20031;-66
2021/05/31 09:16:57;;;;;;;15.63;8.48;;;;;;;16.17;53.47;98940.22;4933215;29;20046;-67
2021/05/31 09:19:22;;;;;;;19.70;8.73;;;;;;;16.32;53.45;98939.78;4941376;29;20023;-65
2021/05/31 09:21:49;;;;;;;13.27;6.32;;;;;;;16.43;52.05;98936.72;4936669;29;20398;-66
2021/05/31 09:24:19;;;;;;;15.90;8.23;;;;;;;16.48;50.91;98940.13;4933039;29;20453;-68
2021/05/31 09:26:50;;;;;;;24.33;11.07;;;;;;;16.50;50.60;98942.59;4944923;29;20036;-68
2021/05/31 09:29:16;;;;;;;12.32;6.93;;;;;;;16.51;50.50;98938.66;4946168;29;20039;-69
2021/05/31 09:31:42;;;;;;;11.52;6.00;;;;;;;16.49;50.41;98936.22;4938050;29;20054;-69
2021/05/31 09:34:11;;;;;;;8.23;5.78;;;;;;;16.47;49.90;98932.16;4932138;29;20521;-68
2021/05/31 09:36:47;;;;;;;;;;;;;;;16.45;50.02;98938.00;4931064;29;20190;-69
2021/05/31 09:39:13;;;;;;;14.68;7.72;;;;;;;16.42;49.82;98930.34;4937720;29;19923;-70
2021/05/31 09:41:38;;;;;;;12.13;6.80;;;;;;;16.49;50.25;98925.13;4937314;28;20120;-68
2021/05/31 09:44:07;;;;;;;13.70;5.70;;;;;;;16.60;50.66;98922.84;4933912;29;20034;-70
2021/05/31 09:46:40;;;;;;;8.15;5.25;;;;;;;16.71;49.54;98928.88;4947985;29;20038;-68
2021/05/31 09:49:19;;;;;;;8.73;6.07;;;;;;;16.78;48.89;98914.56;4939403;29;20039;-68
2021/05/31 09:52:01;;;;;;;9.27;5.00;;;;;;;16.82;47.17;98913.56;4952228;29;20037;-69
2021/05/31 09:54:26;;;;;;;8.10;4.90;;;;;;;16.81;46.77;98916.69;4940751;28;20038;-70
2021/05/31 09:56:51;;;;;;;9.55;5.10;;;;;;;16.82;46.49;98912.78;4945032;29;20040;-68
2021/05/31 09:59:18;;;;;;;11.07;5.32;;;;;;;16.82;46.55;98910.81;4939131;29;20482;-69
2021/05/31 10:01:43;;;;;;;13.23;6.50;;;;;;;16.88;46.35;98908.69;4935160;29;20031;-68
2021/05/31 10:06:52;;;;;;;8.85;4.15;;;;;;;16.91;44.59;98907.22;4937649;29;20035;-66
2021/05/31 10:09:17;;;;;;;13.35;5.07;;;;;;;16.96;44.16;98912.63;4939336;28;20043;-67
2021/05/31 10:11:45;;;;;;;9.32;4.30;;;;;;;17.01;43.99;98918.00;4931832;29;20019;-69
2021/05/31 10:14:13;;;;;;;10.15;5.93;;;;;;;17.03;43.57;98912.94;4942198;29;20060;-68
2021/05/31 10:16:40;;;;;;;9.30;4.78;;;;;;;17.07;43.17;98905.59;4941063;28;20047;-68
2021/05/31 10:19:06;;;;;;;10.15;4.78;;;;;;;17.13;43.34;98900.69;4941340;29;20034;-69
2021/05/31 10:21:31;;;;;;;12.45;5.00;;;;;;;17.19;42.46;98890.25;4938250;29;20039;-69
2021/05/31 10:23:56;;;;;;;9.48;4.50;;;;;;;17.29;42.49;98898.22;4937495;29;20113;-70
2021/05/31 10:26:23;;;;;;;11.20;5.20;;;;;;;17.35;41.83;98896.06;4933718;29;20582;-73
2021/05/31 10:28:49;;;;;;;9.63;4.55;;;;;;;17.43;42.75;98897.19;4932759;29;20031;-71
2021/05/31 10:31:15;;;;;;;11.73;5.75;;;;;;;17.44;42.28;98896.84;4931268;29;20051;-72
2021/05/31 10:33:41;;;;;;;8.40;4.75;;;;;;;17.48;43.43;98900.59;4931194;29;20107;-73
2021/05/31 10:36:15;;;;;;;7.28;4.75;;;;;;;17.48;43.44;98895.03;4938799;29;20071;-72
2021/05/31 10:38:44;;;;;;;19.42;8.43;;;;;;;17.42;42.95;98893.59;4944560;29;20044;-71
2021/05/31 10:41:16;;;;;;;7.72;4.85;;;;;;;17.33;42.34;98888.09;4944997;28;20112;-71
2021/05/31 10:43:46;;;;;;;11.85;7.07;;;;;;;17.25;43.18;98881.44;4948246;29;20035;-70
2021/05/31 10:46:39;;;;;;;12.45;7.18;;;;;;;17.21;43.53;98883.22;4933668;29;20027;-70
2021/05/31 10:49:05;;;;;;;8.45;4.70;;;;;;;17.17;43.52;98885.03;4941745;29;20122;-72
2021/05/31 10:51:37;;;;;;;8.10;5.00;;;;;;;17.10;42.89;98884.72;4944276;28;20042;-73
2021/05/31 10:54:07;;;;;;;7.35;4.55;;;;;;;17.00;42.95;98866.50;4933135;29;20094;-71
2021/05/31 10:56:32;;;;;;;10.23;6.35;;;;;;;16.90;42.30;98873.16;4938935;28;20035;-69
2021/05/31 10:58:59;;;;;;;8.63;5.40;;;;;;;16.81;43.26;98878.69;4936827;29;20032;-70
2021/05/31 11:01:27;;;;;;;13.57;6.20;;;;;;;16.82;43.53;98882.31;4943208;28;20158;-72
2021/05/31 11:03:59;;;;;;;16.05;5.72;;;;;;;16.87;44.01;98873.00;4945404;28;20042;-70
2021/05/31 11:06:26;;;;;;;6.72;4.53;;;;;;;16.97;43.20;98867.16;4948620;28;20082;-71
2021/05/31 11:08:53;;;;;;;7.18;4.00;;;;;;;17.08;41.43;98862.06;4941499;29;20024;-70
2021/05/31 11:11:45;;;;;;;7.03;3.88;;;;;;;17.22;40.40;98871.00;4944675;29;20031;-72
2021/05/31 11:14:12;;;;;;;12.07;5.65;;;;;;;17.35;42.22;98862.78;4944915;29;20062;-71
2021/05/31 11:17:17;;;;;;;8.57;4.97;;;;;;;17.54;43.18;98860.44;4931276;29;20102;-71
2021/05/31 11:19:51;;;;;;;8.80;4.80;;;;;;;17.65;41.81;98868.41;4949610;29;20036;-72
2021/05/31 11:22:22;;;;;;;7.57;5.03;;;;;;;17.62;41.33;98875.41;4950758;29;20063;-71
2021/05/31 11:24:59;;;;;;;6.53;4.70;;;;;;;17.52;41.42;98868.28;4950120;29;20023;-71
2021/05/31 11:27:29;;;;;;;9.80;5.00;;;;;;;17.41;41.17;98862.28;4956498;28;20679;-71
2021/05/31 11:29:54;;;;;;;10.57;5.07;;;;;;;17.29;41.46;98861.38;4941730;29;20818;-70
2021/05/31 11:32:20;;;;;;;11.15;5.00;;;;;;;17.18;41.85;98860.88;4942917;28;20047;-69
2021/05/31 11:34:56;;;;;;;11.80;5.70;;;;;;;17.11;42.48;98869.72;4932411;29;20585;-70
2021/05/31 11:37:26;;;;;;;7.57;5.03;;;;;;;17.08;41.92;98862.91;4938491;29;20123;-69
2021/05/31 11:39:53;;;;;;;10.90;4.40;;;;;;;17.05;42.05;98866.31;4948790;28;20066;-70
2021/05/31 11:42:18;;;;;;;12.43;4.90;;;;;;;17.06;42.63;98853.28;4948992;29;20035;-70
2021/05/31 11:44:54;;;;;;;9.40;4.45;;;;;;;17.04;42.47;98861.94;4949302;29;20046;-71